Time;durP1;ratioP1;P1;durP2;ratioP2;P2;SDS_P1;SDS_P2;PMS_P1;PMS_P2;Temp;Humidity;BMP_temperature;BMP_pressure;BME280_temperature;BME280_humidity;BME280_pressure;Samples;Min_cycle;Max_cycle;Signal;HPM_P1;HPM_P2
2022/01/08 00:01:21;;;;;;;1.20;1.20;;;;;;;;;;6311291;28;20383;-76
2022/01/08 00:04:25;;;;;;;6.50;1.20;;;;;;;;;;6311891;28;20184;-75
2022/01/08 00:07:29;;;;;;;1.07;1.07;;;;;;;;;;6311168;28;20191;-75
2022/01/08 00:10:34;;;;;;;1.07;1.07;;;;;;;;;;6312170;28;20191;-76
2022/01/08 00:13:40;;;;;;;1.30;1.20;;;;;;;;;;6311208;28;20192;-76
2022/01/08 00:16:45;;;;;;;1.80;0.90;;;;;;;;;;6310990;28;20208;-75
2022/01/08 00:19:49;;;;;;;2.00;1.10;;;;;;;;;;6311117;28;20493;-75
2022/01/08 00:22:54;;;;;;;1.27;1.27;;;;;;;;;;6311098;28;20452;-75
2022/01/08 00:25:59;;;;;;;0.87;0.83;;;;;;;;;;6311074;28;20249;-75
2022/01/08 00:29:03;;;;;;;0.90;0.90;;;;;;;;;;6312334;28;20251;-75
2022/01/08 00:32:10;;;;;;;1.13;1.10;;;;;;;;;;6311221;28;20227;-75
2022/01/08 00:35:17;;;;;;;1.40;1.00;;;;;;;;;;6311959;28;20188;-75
2022/01/08 00:38:21;;;;;;;1.10;1.10;;;;;;;;;;6310886;28;20370;-75
2022/01/08 00:41:25;;;;;;;1.03;0.97;;;;;;;;;;6312171;28;20264;-75
2022/01/08 00:44:30;;;;;;;1.10;1.10;;;;;;;;;;6312187;28;20195;-75
2022/01/08 00:47:36;;;;;;;1.00;1.00;;;;;;;;;;6310824;28;20546;-76
2022/01/08 00:50:41;;;;;;;1.20;1.10;;;;;;;;;;6312106;28;20263;-75
2022/01/08 00:53:45;;;;;;;6.50;1.00;;;;;;;;;;6313928;28;20183;-75
2022/01/08 00:56:50;;;;;;;3.77;1.10;;;;;;;;;;6315900;28;20252;-75
2022/01/08 00:59:54;;;;;;;1.47;1.17;;;;;;;;;;6316899;28;20230;-75
2022/01/08 01:02:59;;;;;;;1.00;1.00;;;;;;;;;;6316860;28;20218;-75
2022/01/08 01:06:06;;;;;;;2.13;1.37;;;;;;;;;;6316788;28;20187;-75
2022/01/08 01:09:15;;;;;;;3.63;1.30;;;;;;;;;;6315372;28;20471;-75
2022/01/08 01:12:19;;;;;;;1.20;1.20;;;;;;;;;;6315372;28;20470;-75
2022/01/08 01:15:43;;;;;;;1.20;1.20;;;;;;;;;;6316503;28;20186;-76
2022/01/08 01:18:48;;;;;;;1.10;1.10;;;;;;;;;;6316090;28;20188;-75
2022/01/08 01:21:56;;;;;;;1.27;1.20;;;;;;;;;;6314819;28;20239;-75
2022/01/08 01:25:05;;;;;;;2.30;1.00;;;;;;;;;;6315386;28;20185;-76
2022/01/08 01:28:25;;;;;;;1.00;1.00;;;;;;;;;;6315256;28;20196;-75
2022/01/08 01:41:36;;;;;;;0.83;0.83;;;;;;;;;;6315869;28;20184;-75
2022/01/08 01:48:02;;;;;;;1.50;0.87;;;;;;;;;;6315917;28;20235;-75
2022/01/08 01:51:08;;;;;;;1.00;0.90;;;;;;;;;;6314343;28;20600;-75
2022/01/08 01:54:13;;;;;;;1.10;1.10;;;;;;;;;;6315769;28;20191;-76
2022/01/08 01:57:19;;;;;;;0.80;0.80;;;;;;;;;;6315246;28;20209;-76
2022/01/08 02:00:23;;;;;;;0.73;0.73;;;;;;;;;;6315621;28;20215;-76
2022/01/08 02:03:27;;;;;;;1.23;0.90;;;;;;;;;;6315174;28;20208;-76
2022/01/08 02:06:33;;;;;;;0.93;0.93;;;;;;;;;;6314672;28;20189;-76
2022/01/08 02:09:40;;;;;;;0.97;0.97;;;;;;;;;;6315444;28;20194;-76
2022/01/08 02:12:44;;;;;;;0.97;0.97;;;;;;;;;;6315269;28;20208;-76
2022/01/08 02:15:51;;;;;;;1.03;1.00;;;;;;;;;;6315209;28;20193;-76
2022/01/08 02:18:56;;;;;;;0.83;0.83;;;;;;;;;;6315069;28;20209;-76
2022/01/08 02:22:03;;;;;;;2.27;0.90;;;;;;;;;;6315049;28;20225;-76
2022/01/08 02:25:08;;;;;;;0.90;0.90;;;;;;;;;;6313780;28;20185;-76
2022/01/08 02:28:16;;;;;;;1.07;1.07;;;;;;;;;;6313542;28;20195;-76
2022/01/08 02:31:25;;;;;;;1.10;1.00;;;;;;;;;;6313401;28;20261;-76
2022/01/08 02:34:29;;;;;;;0.90;0.90;;;;;;;;;;6313626;28;20260;-76
2022/01/08 02:37:35;;;;;;;1.00;1.00;;;;;;;;;;6314339;28;20216;-76
2022/01/08 02:40:39;;;;;;;0.90;0.90;;;;;;;;;;6314354;28;20193;-76
2022/01/08 02:43:46;;;;;;;0.90;0.90;;;;;;;;;;6314290;28;20192;-76
2022/01/08 02:46:50;;;;;;;3.03;1.00;;;;;;;;;;6314491;28;20197;-76
2022/01/08 02:49:54;;;;;;;0.80;0.80;;;;;;;;;;6314617;28;20185;-76
2022/01/08 02:53:00;;;;;;;0.90;0.90;;;;;;;;;;6313030;28;20465;-76
2022/01/08 02:56:05;;;;;;;0.90;0.90;;;;;;;;;;6313031;28;20473;-76
2022/01/08 02:59:11;;;;;;;2.47;1.10;;;;;;;;;;6312864;28;20214;-75
2022/01/08 03:02:16;;;;;;;1.77;0.90;;;;;;;;;;6312859;28;20185;-76
2022/01/08 03:05:20;;;;;;;1.00;1.00;;;;;;;;;;6313675;28;20292;-76
2022/01/08 03:08:26;;;;;;;0.90;0.90;;;;;;;;;;6314005;28;20196;-76
2022/01/08 03:11:30;;;;;;;0.90;0.90;;;;;;;;;;6313934;28;20186;-76
2022/01/08 03:14:34;;;;;;;0.90;0.90;;;;;;;;;;6312760;28;20186;-76
2022/01/08 03:17:40;;;;;;;1.00;1.00;;;;;;;;;;6311589;28;20209;-76
2022/01/08 03:20:48;;;;;;;1.60;1.00;;;;;;;;;;6312340;28;20414;-76
2022/01/08 03:23:58;;;;;;;0.90;0.90;;;;;;;;;;6294887;28;20208;-76
2022/01/08 03:27:03;;;;;;;0.90;0.90;;;;;;;;;;6312190;28;20191;-76
2022/01/08 03:30:09;;;;;;;2.00;1.00;;;;;;;;;;6313153;28;20255;-76
2022/01/08 03:33:18;;;;;;;0.70;0.70;;;;;;;;;;6313205;28;20338;-76
2022/01/08 03:36:23;;;;;;;0.70;0.70;;;;;;;;;;6312878;28;20187;-76
2022/01/08 03:39:28;;;;;;;0.90;0.90;;;;;;;;;;6313151;28;20256;-76
2022/01/08 03:42:33;;;;;;;0.90;0.90;;;;;;;;;;6312282;28;20184;-75
2022/01/08 03:45:38;;;;;;;0.80;0.80;;;;;;;;;;6312471;28;20184;-76
2022/01/08 03:48:47;;;;;;;0.90;0.90;;;;;;;;;;6312992;28;20190;-76
2022/01/08 03:51:52;;;;;;;0.93;0.93;;;;;;;;;;6312686;28;20218;-76
2022/01/08 03:54:58;;;;;;;1.00;1.00;;;;;;;;;;6311615;28;20189;-76
2022/01/08 03:58:03;;;;;;;0.97;0.90;;;;;;;;;;6312845;28;20212;-76
2022/01/08 04:01:10;;;;;;;0.80;0.80;;;;;;;;;;6312894;28;20224;-76
2022/01/08 04:04:14;;;;;;;0.80;0.80;;;;;;;;;;6311518;28;20224;-76
2022/01/08 04:07:19;;;;;;;0.80;0.80;;;;;;;;;;6312727;28;20232;-76
2022/01/08 04:10:24;;;;;;;0.90;0.90;;;;;;;;;;6311807;28;20223;-76
2022/01/08 04:13:32;;;;;;;0.80;0.80;;;;;;;;;;6311570;28;20201;-76
2022/01/08 04:16:40;;;;;;;0.90;0.90;;;;;;;;;;6311295;28;20387;-76
2022/01/08 04:19:44;;;;;;;0.90;0.90;;;;;;;;;;6312232;28;20214;-76
2022/01/08 04:22:50;;;;;;;0.93;0.93;;;;;;;;;;6312494;28;20186;-76
2022/01/08 04:25:56;;;;;;;0.90;0.90;;;;;;;;;;6311661;28;20185;-76
2022/01/08 04:29:00;;;;;;;0.80;0.80;;;;;;;;;;6312247;28;20217;-75
2022/01/08 04:32:04;;;;;;;1.00;1.00;;;;;;;;;;6311524;28;20598;-76
2022/01/08 04:35:10;;;;;;;1.10;1.10;;;;;;;;;;6312283;28;20193;-76
2022/01/08 04:38:18;;;;;;;0.90;0.90;;;;;;;;;;6310899;28;20521;-76
2022/01/08 04:41:23;;;;;;;1.00;1.00;;;;;;;;;;6312200;28;20227;-76
2022/01/08 04:44:28;;;;;;;1.07;1.07;;;;;;;;;;6311325;28;20304;-76
2022/01/08 04:47:32;;;;;;;0.93;0.93;;;;;;;;;;6310776;28;20442;-76
2022/01/08 04:50:36;;;;;;;1.10;1.10;;;;;;;;;;6311857;28;20367;-76
2022/01/08 04:53:40;;;;;;;1.30;1.30;;;;;;;;;;6311639;28;20232;-76
2022/01/08 04:56:45;;;;;;;1.10;1.10;;;;;;;;;;6312058;28;20192;-76
2022/01/08 04:59:50;;;;;;;1.10;1.10;;;;;;;;;;6311577;28;20215;-76
2022/01/08 05:02:54;;;;;;;1.10;1.10;;;;;;;;;;6310909;28;20186;-76
2022/01/08 05:05:58;;;;;;;1.20;1.20;;;;;;;;;;6310949;28;20191;-76
2022/01/08 05:09:03;;;;;;;1.10;1.10;;;;;;;;;;6310547;28;20477;-76
2022/01/08 05:12:09;;;;;;;1.10;1.10;;;;;;;;;;6311535;28;20252;-76
2022/01/08 05:15:15;;;;;;;1.10;1.10;;;;;;;;;;6311810;28;20187;-76
2022/01/08 05:18:20;;;;;;;1.00;1.00;;;;;;;;;;6311613;28;20264;-76
2022/01/08 05:21:26;;;;;;;1.20;1.20;;;;;;;;;;6310734;28;20210;-76
2022/01/08 05:24:30;;;;;;;1.00;1.00;;;;;;;;;;6310664;28;20194;-76
2022/01/08 05:27:36;;;;;;;1.10;1.10;;;;;;;;;;6310723;28;20187;-76
2022/01/08 05:30:41;;;;;;;1.00;1.00;;;;;;;;;;6311326;28;20191;-76
2022/01/08 05:33:45;;;;;;;1.10;1.10;;;;;;;;;;6311247;28;20218;-76
2022/01/08 05:36:49;;;;;;;1.10;1.10;;;;;;;;;;6310971;28;20273;-76
2022/01/08 05:39:54;;;;;;;1.30;1.30;;;;;;;;;;6312364;28;20278;-76
2022/01/08 05:42:59;;;;;;;1.23;1.23;;;;;;;;;;6315556;28;20186;-76
2022/01/08 05:46:03;;;;;;;1.10;1.10;;;;;;;;;;6314619;28;20470;-76
2022/01/08 05:49:08;;;;;;;1.20;1.20;;;;;;;;;;6314428;28;20258;-76
2022/01/08 05:52:13;;;;;;;1.20;1.20;;;;;;;;;;6315748;28;20192;-76
2022/01/08 05:55:17;;;;;;;1.33;1.10;;;;;;;;;;6314698;28;20274;-75
2022/01/08 05:58:23;;;;;;;1.07;1.07;;;;;;;;;;6315188;28;20194;-76
2022/01/08 06:01:27;;;;;;;1.00;1.00;;;;;;;;;;6315205;28;20225;-76
2022/01/08 06:04:31;;;;;;;1.20;1.20;;;;;;;;;;6314502;28;20186;-74
2022/01/08 06:07:35;;;;;;;1.20;1.20;;;;;;;;;;6315670;28;20259;-75
2022/01/08 06:10:39;;;;;;;1.10;1.10;;;;;;;;;;6315034;28;20190;-75
2022/01/08 06:13:45;;;;;;;1.00;1.00;;;;;;;;;;6313954;28;20218;-75
2022/01/08 06:16:49;;;;;;;1.00;1.00;;;;;;;;;;6313850;28;20478;-75
2022/01/08 06:19:53;;;;;;;1.00;1.00;;;;;;;;;;6314734;28;20287;-74
2022/01/08 06:22:57;;;;;;;1.00;1.00;;;;;;;;;;6313637;28;20484;-75
2022/01/08 06:26:02;;;;;;;1.10;1.10;;;;;;;;;;6314400;28;20188;-75
2022/01/08 06:29:07;;;;;;;1.00;1.00;;;;;;;;;;6314493;28;20236;-75
2022/01/08 06:32:15;;;;;;;0.93;0.93;;;;;;;;;;6313957;28;20246;-75
2022/01/08 06:35:19;;;;;;;1.00;1.00;;;;;;;;;;6314451;28;20184;-76
2022/01/08 06:38:23;;;;;;;0.97;0.97;;;;;;;;;;6314642;28;20254;-75
2022/01/08 06:41:29;;;;;;;1.10;1.10;;;;;;;;;;6314473;28;20213;-75
2022/01/08 06:44:34;;;;;;;1.10;1.10;;;;;;;;;;6313259;28;20562;-75
2022/01/08 06:47:39;;;;;;;1.00;1.00;;;;;;;;;;6313984;28;20231;-76
2022/01/08 06:50:43;;;;;;;1.20;1.20;;;;;;;;;;6312960;28;20198;-76
2022/01/08 06:53:48;;;;;;;1.27;1.27;;;;;;;;;;6314181;28;20221;-76
2022/01/08 06:56:52;;;;;;;1.17;1.17;;;;;;;;;;6313915;28;20240;-76
2022/01/08 06:59:57;;;;;;;1.10;1.10;;;;;;;;;;6313973;28;20221;-75
2022/01/08 07:03:02;;;;;;;1.30;1.30;;;;;;;;;;6312958;28;20490;-76
2022/01/08 07:06:07;;;;;;;1.47;1.47;;;;;;;;;;6312604;28;20545;-76
2022/01/08 07:09:13;;;;;;;1.33;1.33;;;;;;;;;;6313900;28;20187;-76
2022/01/08 07:12:17;;;;;;;1.33;1.33;;;;;;;;;;6312398;28;20187;-75
2022/01/08 07:15:23;;;;;;;1.50;1.50;;;;;;;;;;6312395;28;20232;-75
2022/01/08 07:18:27;;;;;;;1.40;1.40;;;;;;;;;;6313630;28;20191;-75
2022/01/08 07:21:31;;;;;;;1.37;1.37;;;;;;;;;;6312082;28;20225;-75
2022/01/08 07:24:35;;;;;;;1.60;1.50;;;;;;;;;;6312302;28;20460;-75
2022/01/08 07:27:40;;;;;;;1.47;1.47;;;;;;;;;;6312572;28;20261;-75
2022/01/08 07:30:46;;;;;;;1.97;1.60;;;;;;;;;;6311839;28;20190;-75
2022/01/08 07:33:50;;;;;;;1.50;1.50;;;;;;;;;;6312095;28;20419;-76
2022/01/08 07:36:55;;;;;;;1.50;1.50;;;;;;;;;;6313189;28;20184;-75
2022/01/08 07:39:59;;;;;;;1.47;1.40;;;;;;;;;;6312119;28;20222;-75
2022/01/08 07:43:04;;;;;;;1.80;1.70;;;;;;;;;;6311711;28;20332;-75
2022/01/08 07:46:10;;;;;;;2.13;2.00;;;;;;;;;;6313029;28;20288;-75
2022/01/08 07:49:14;;;;;;;3.07;1.57;;;;;;;;;;6312837;28;20287;-76
2022/01/08 07:52:19;;;;;;;2.10;1.60;;;;;;;;;;6312595;28;20190;-75
2022/01/08 07:55:23;;;;;;;1.90;1.80;;;;;;;;;;6312568;28;20193;-75
2022/01/08 07:58:27;;;;;;;1.73;1.73;;;;;;;;;;6312297;28;20224;-76
2022/01/08 08:01:32;;;;;;;1.53;1.53;;;;;;;;;;6312271;28;20301;-76
2022/01/08 08:04:36;;;;;;;1.70;1.70;;;;;;;;;;6311411;28;20192;-76
2022/01/08 08:07:41;;;;;;;1.40;1.40;;;;;;;;;;6312358;28;20193;-76
2022/01/08 08:10:47;;;;;;;1.70;1.70;;;;;;;;;;6312241;28;20254;-75
2022/01/08 08:13:51;;;;;;;1.40;1.40;;;;;;;;;;6312502;28;20208;-76
2022/01/08 08:16:58;;;;;;;1.73;1.63;;;;;;;;;;6312437;28;20193;-76
2022/01/08 08:20:02;;;;;;;1.40;1.40;;;;;;;;;;6311301;28;20268;-76
2022/01/08 08:23:10;;;;;;;1.80;1.80;;;;;;;;;;6311029;28;20603;-76
2022/01/08 08:26:14;;;;;;;2.30;2.00;;;;;;;;;;6310998;28;20192;-76
2022/01/08 08:29:21;;;;;;;1.77;1.77;;;;;;;;;;6312183;28;20224;-76
2022/01/08 08:32:27;;;;;;;1.77;1.77;;;;;;;;;;6310910;28;20249;-76
2022/01/08 08:35:31;;;;;;;1.57;1.40;;;;;;;;;;6311912;28;20187;-76
2022/01/08 08:38:35;;;;;;;3.20;1.77;;;;;;;;;;6312140;28;20191;-76
2022/01/08 08:41:39;;;;;;;1.63;1.63;;;;;;;;;;6310770;28;20500;-76
2022/01/08 08:44:43;;;;;;;1.57;1.57;;;;;;;;;;6310846;28;20370;-76
2022/01/08 08:47:49;;;;;;;2.17;2.07;;;;;;;;;;6310739;28;20363;-76
2022/01/08 08:50:53;;;;;;;2.27;2.17;;;;;;;;;;6311545;28;20298;-76
2022/01/08 08:53:57;;;;;;;1.87;1.87;;;;;;;;;;6310929;28;20197;-76
2022/01/08 08:57:01;;;;;;;1.73;1.73;;;;;;;;;;6310591;28;20485;-76
2022/01/08 09:00:06;;;;;;;2.03;2.03;;;;;;;;;;6311856;28;20190;-76
2022/01/08 09:03:18;;;;;;;1.97;1.97;;;;;;;;;;6311161;28;20194;-75
2022/01/08 09:06:26;;;;;;;1.77;1.77;;;;;;;;;;6311032;28;20187;-76
2022/01/08 09:09:30;;;;;;;2.70;2.60;;;;;;;;;;6311827;28;20232;-76
2022/01/08 09:12:34;;;;;;;2.50;2.50;;;;;;;;;;6311882;28;20198;-76
2022/01/08 09:15:41;;;;;;;2.77;2.67;;;;;;;;;;6314827;28;20273;-76
2022/01/08 09:18:47;;;;;;;2.63;2.57;;;;;;;;;;6316149;28;20187;-77
2022/01/08 09:21:51;;;;;;;2.20;2.20;;;;;;;;;;6315949;28;20229;-76
2022/01/08 09:24:56;;;;;;;3.20;3.00;;;;;;;;;;6315024;28;20529;-80
2022/01/08 09:28:00;;;;;;;3.97;3.70;;;;;;;;;;6315019;28;20504;-76
2022/01/08 09:31:05;;;;;;;4.63;3.20;;;;;;;;;;6316047;28;20294;-76
2022/01/08 09:34:12;;;;;;;2.73;2.63;;;;;;;;;;6315848;28;20190;-76
2022/01/08 09:37:16;;;;;;;3.80;3.53;;;;;;;;;;6315220;28;20190;-76
2022/01/08 09:40:22;;;;;;;3.87;3.60;;;;;;;;;;6315677;28;20215;-75
2022/01/08 09:43:27;;;;;;;3.13;2.97;;;;;;;;;;6314876;28;20201;-76
2022/01/08 09:46:31;;;;;;;3.20;3.00;;;;;;;;;;6315515;28;20218;-76
2022/01/08 09:49:38;;;;;;;3.63;3.33;;;;;;;;;;6315480;28;20191;-76
2022/01/08 09:52:43;;;;;;;3.80;3.50;;;;;;;;;;6315195;28;20197;-75
2022/01/08 09:55:48;;;;;;;4.20;3.90;;;;;;;;;;6315192;28;20191;-75
2022/01/08 09:58:52;;;;;;;5.63;3.60;;;;;;;;;;6315377;28;20186;-75
2022/01/08 10:01:59;;;;;;;4.47;3.97;;;;;;;;;;6314254;28;20307;-75
2022/01/08 10:05:10;;;;;;;4.67;4.37;;;;;;;;;;6314373;28;20198;-75
2022/01/08 10:08:16;;;;;;;4.67;4.20;;;;;;;;;;6315333;28;20246;-76
2022/01/08 10:11:21;;;;;;;4.73;4.03;;;;;;;;;;6315277;28;20224;-76
2022/01/08 10:17:13;;;;;;;4.33;3.93;;;;;;;;;;6314833;28;20191;-75
2022/01/08 10:17:58;;;;;;;5.40;4.53;;;;;;;;;;6313916;28;20393;-79
2022/01/08 10:21:17;;;;;;;5.63;4.80;;;;;;;;;;6313953;28;20191;-76
2022/01/08 10:24:23;;;;;;;4.93;4.50;;;;;;;;;;6313648;28;20187;-77
2022/01/08 10:27:35;;;;;;;6.17;4.30;;;;;;;;;;6314601;28;20191;-78
2022/01/08 10:30:39;;;;;;;8.53;4.67;;;;;;;;;;6314692;28;20295;-75
2022/01/08 10:33:45;;;;;;;5.50;4.33;;;;;;;;;;6314807;28;20247;-77
2022/01/08 10:36:59;;;;;;;4.80;4.50;;;;;;;;;;6314392;28;20191;-75
2022/01/08 10:40:03;;;;;;;7.33;4.07;;;;;;;;;;6313509;28;20233;-75
2022/01/08 10:43:21;;;;;;;6.00;4.90;;;;;;;;;;6314429;28;20211;-75
2022/01/08 10:46:26;;;;;;;5.60;4.63;;;;;;;;;;6313232;28;20534;-75
2022/01/08 10:49:34;;;;;;;6.97;4.87;;;;;;;;;;6314279;28;20191;-75
2022/01/08 10:52:44;;;;;;;5.20;4.73;;;;;;;;;;6314305;28;20228;-75
2022/01/08 10:55:47;;;;;;;5.70;4.80;;;;;;;;;;6313629;28;20276;-76
2022/01/08 10:58:55;;;;;;;6.93;4.97;;;;;;;;;;6313820;28;20215;-75
2022/01/08 11:02:00;;;;;;;5.20;4.77;;;;;;;;;;6314006;28;20212;-76
2022/01/08 11:05:08;;;;;;;6.23;5.00;;;;;;;;;;6313708;28;20362;-75
2022/01/08 11:08:17;;;;;;;6.03;5.03;;;;;;;;;;6313555;28;20187;-75
2022/01/08 11:11:27;;;;;;;7.63;4.70;;;;;;;;;;6313745;28;20184;-75
2022/01/08 11:15:01;;;;;;;8.07;5.40;;;;;;;;;;6312369;28;20211;-75
2022/01/08 11:18:06;;;;;;;10.03;4.90;;;;;;;;;;6313748;28;20191;-76
2022/01/08 11:21:31;;;;;;;6.17;5.43;;;;;;;;;;6312332;28;20194;-76
2022/01/08 11:24:37;;;;;;;5.40;4.90;;;;;;;;;;6313960;28;20196;-77
2022/01/08 11:27:45;;;;;;;8.07;5.20;;;;;;;;;;6314237;28;20183;-77
2022/01/08 11:30:52;;;;;;;6.70;5.07;;;;;;;;;;6313458;28;20203;-78
2022/01/08 11:34:04;;;;;;;4.90;4.40;;;;;;;;;;6313532;28;20188;-78
2022/01/08 11:37:08;;;;;;;5.70;5.20;;;;;;;;;;6313951;28;20212;-79
2022/01/08 11:40:17;;;;;;;5.33;4.80;;;;;;;;;;6313481;28;20184;-77
2022/01/08 11:43:23;;;;;;;5.87;5.27;;;;;;;;;;6313025;28;20285;-77
2022/01/08 11:46:30;;;;;;;8.47;5.70;;;;;;;;;;6312486;28;20185;-77
2022/01/08 11:49:35;;;;;;;9.40;5.10;;;;;;;;;;6312256;28;20262;-77
2022/01/08 11:52:38;;;;;;;7.07;5.27;;;;;;;;;;6313696;28;20189;-76
2022/01/08 11:55:46;;;;;;;6.80;5.23;;;;;;;;;;6314666;28;20187;-80
2022/01/08 11:59:04;;;;;;;6.80;5.10;;;;;;;;;;6314808;28;20186;-80
2022/01/08 12:02:11;;;;;;;12.47;5.73;;;;;;;;;;6312705;28;20214;-76
2022/01/08 12:05:28;;;;;;;9.93;4.70;;;;;;;;;;6311068;28;20208;-76
2022/01/08 12:08:56;;;;;;;8.87;4.90;;;;;;;;;;6311421;28;20194;-76
2022/01/08 12:12:04;;;;;;;5.90;5.10;;;;;;;;;;6312544;28;20259;-76
2022/01/08 12:15:11;;;;;;;12.97;6.77;;;;;;;;;;6312406;28;20186;-79
2022/01/08 12:18:20;;;;;;;7.47;5.60;;;;;;;;;;6314234;28;20194;-77
2022/01/08 12:21:34;;;;;;;6.20;5.60;;;;;;;;;;6315104;28;20187;-77
2022/01/08 12:24:38;;;;;;;8.27;5.23;;;;;;;;;;6315127;28;20217;-78
2022/01/08 12:27:46;;;;;;;11.10;5.90;;;;;;;;;;6312130;28;20186;-77
2022/01/08 12:30:50;;;;;;;11.93;6.70;;;;;;;;;;6312325;28;20200;-76
2022/01/08 12:34:43;;;;;;;6.00;5.40;;;;;;;;;;6313079;28;20266;-76
2022/01/08 12:37:49;;;;;;;8.77;5.47;;;;;;;;;;6312336;28;20308;-75
2022/01/08 12:40:54;;;;;;;8.97;6.57;;;;;;;;;;6312469;28;20252;-76
2022/01/08 12:44:28;;;;;;;15.27;6.50;;;;;;;;;;6311736;28;20274;-75
2022/01/08 12:47:46;;;;;;;9.80;5.97;;;;;;;;;;6311034;28;20497;-76
2022/01/08 12:50:56;;;;;;;9.70;5.47;;;;;;;;;;6317178;28;20191;-76
2022/01/08 12:54:05;;;;;;;10.30;6.60;;;;;;;;;;6317436;28;20189;-76
2022/01/08 12:57:11;;;;;;;10.37;6.30;;;;;;;;;;6315763;28;20377;-76
2022/01/08 13:00:17;;;;;;;7.17;5.70;;;;;;;;;;6317121;28;20184;-76
2022/01/08 13:03:23;;;;;;;12.53;6.47;;;;;;;;;;6315543;28;20207;-76
2022/01/08 13:06:32;;;;;;;9.40;6.20;;;;;;;;;;6316364;28;20194;-77
2022/01/08 13:09:36;;;;;;;12.60;6.30;;;;;;;;;;6316411;28;20191;-76
2022/01/08 13:12:40;;;;;;;7.47;5.73;;;;;;;;;;6315604;28;20408;-76
2022/01/08 13:15:45;;;;;;;9.10;6.20;;;;;;;;;;6316387;28;20193;-76
2022/01/08 13:18:51;;;;;;;11.50;6.00;;;;;;;;;;6315222;28;20497;-76
2022/01/08 13:21:57;;;;;;;9.73;6.13;;;;;;;;;;6316736;28;20189;-76
2022/01/08 13:25:01;;;;;;;17.80;7.40;;;;;;;;;;6316533;28;20208;-77
2022/01/08 13:28:05;;;;;;;11.13;6.30;;;;;;;;;;6315558;28;20190;-76
2022/01/08 13:31:12;;;;;;;10.50;6.50;;;;;;;;;;6315417;28;20228;-76
2022/01/08 13:34:16;;;;;;;10.40;5.90;;;;;;;;;;6316313;28;20245;-76
2022/01/08 13:37:21;;;;;;;11.80;5.87;;;;;;;;;;6315928;28;20190;-76
2022/01/08 13:40:26;;;;;;;8.23;6.00;;;;;;;;;;6316251;28;20192;-76
2022/01/08 13:43:30;;;;;;;7.63;5.70;;;;;;;;;;6315028;28;20220;-77
2022/01/08 13:46:37;;;;;;;7.00;5.53;;;;;;;;;;6315677;28;20186;-76
2022/01/08 13:49:41;;;;;;;5.67;5.07;;;;;;;;;;6315234;28;20186;-76
2022/01/08 13:52:50;;;;;;;10.17;6.20;;;;;;;;;;6315794;28;20195;-76
2022/01/08 13:55:53;;;;;;;10.60;5.33;;;;;;;;;;6315091;28;20187;-76
2022/01/08 13:59:05;;;;;;;9.20;6.00;;;;;;;;;;6314360;28;20374;-76
2022/01/08 14:02:13;;;;;;;8.20;5.10;;;;;;;;;;6315022;28;20191;-76
2022/01/08 14:05:18;;;;;;;11.80;6.37;;;;;;;;;;6314138;28;20218;-76
2022/01/08 14:08:22;;;;;;;8.77;5.90;;;;;;;;;;6314047;28;20471;-76
2022/01/08 14:11:26;;;;;;;9.30;6.07;;;;;;;;;;6314968;28;20193;-76
2022/01/08 14:14:40;;;;;;;10.03;5.73;;;;;;;;;;6314121;28;20187;-76
2022/01/08 14:17:46;;;;;;;8.33;6.00;;;;;;;;;;6313916;28;20558;-76
2022/01/08 14:20:51;;;;;;;9.10;5.80;;;;;;;;;;6314828;28;20194;-76
2022/01/08 14:23:55;;;;;;;9.30;6.00;;;;;;;;;;6313843;28;20545;-76
2022/01/08 14:27:01;;;;;;;7.67;5.20;;;;;;;;;;6314893;28;20286;-76
2022/01/08 14:30:12;;;;;;;10.17;6.27;;;;;;;;;;6314905;28;20190;-76
2022/01/08 14:33:18;;;;;;;9.57;5.80;;;;;;;;;;6314859;28;20239;-76
2022/01/08 14:36:22;;;;;;;9.50;5.70;;;;;;;;;;6314564;28;20186;-76
2022/01/08 14:39:41;;;;;;;6.07;5.47;;;;;;;;;;6314676;28;20253;-76
2022/01/08 14:42:47;;;;;;;9.27;5.30;;;;;;;;;;6313413;28;20472;-76
2022/01/08 14:45:51;;;;;;;10.40;5.73;;;;;;;;;;6314301;28;20215;-76
2022/01/08 14:48:56;;;;;;;7.67;5.87;;;;;;;;;;6314318;28;20195;-76
2022/01/08 14:52:00;;;;;;;13.00;6.87;;;;;;;;;;6314310;28;20238;-76
2022/01/08 14:55:06;;;;;;;11.03;6.27;;;;;;;;;;6314541;28;20198;-76
2022/01/08 14:58:15;;;;;;;10.63;6.57;;;;;;;;;;6312964;28;20206;-77
2022/01/08 15:01:19;;;;;;;11.20;5.70;;;;;;;;;;6314338;28;20209;-76
2022/01/08 15:04:25;;;;;;;9.77;5.67;;;;;;;;;;6313257;28;20210;-76
2022/01/08 15:07:29;;;;;;;11.30;6.80;;;;;;;;;;6314080;28;20258;-78
2022/01/08 15:10:34;;;;;;;10.43;6.50;;;;;;;;;;6313441;28;20229;-75
2022/01/08 15:13:39;;;;;;;9.80;6.40;;;;;;;;;;6311649;28;20493;-76
2022/01/08 15:16:43;;;;;;;11.60;6.40;;;;;;;;;;6313183;28;20194;-75
2022/01/08 15:19:49;;;;;;;10.50;6.20;;;;;;;;;;6313788;28;20502;-76
2022/01/08 15:22:53;;;;;;;16.17;6.17;;;;;;;;;;6320472;28;20222;-78
2022/01/08 15:25:57;;;;;;;9.87;6.20;;;;;;;;;;6313730;28;20212;-77
2022/01/08 15:29:01;;;;;;;10.43;6.40;;;;;;;;;;6314359;28;20256;-77
2022/01/08 15:32:08;;;;;;;11.57;6.43;;;;;;;;;;6316175;28;20232;-77
2022/01/08 15:36:07;;;;;;;17.43;6.40;;;;;;;;;;6318552;28;20231;-77
2022/01/08 15:39:18;;;;;;;11.47;7.10;;;;;;;;;;6316274;28;20206;-77
2022/01/08 15:42:22;;;;;;;8.57;6.17;;;;;;;;;;6313024;28;20293;-76
2022/01/08 15:45:26;;;;;;;13.40;6.97;;;;;;;;;;6313686;28;20248;-76
2022/01/08 15:48:30;;;;;;;10.67;6.97;;;;;;;;;;6313680;28;20440;-76
2022/01/08 15:51:37;;;;;;;12.63;6.63;;;;;;;;;;6311765;28;20538;-77
2022/01/08 15:54:41;;;;;;;15.97;6.90;;;;;;;;;;6312984;28;20202;-77
2022/01/08 15:57:46;;;;;;;11.33;7.40;;;;;;;;;;6313484;28;20209;-75
2022/01/08 16:00:50;;;;;;;13.13;7.50;;;;;;;;;;6311823;28;20566;-76
2022/01/08 16:03:54;;;;;;;16.70;7.67;;;;;;;;;;6311380;28;20513;-76
2022/01/08 16:07:02;;;;;;;9.53;6.20;;;;;;;;;;6311933;28;20249;-76
2022/01/08 16:10:06;;;;;;;12.40;7.83;;;;;;;;;;6312596;28;20243;-76
2022/01/08 16:13:10;;;;;;;15.17;7.93;;;;;;;;;;6312898;28;20232;-76
2022/01/08 16:16:15;;;;;;;15.37;8.00;;;;;;;;;;6312896;28;20557;-77
2022/01/08 16:19:19;;;;;;;16.33;7.87;;;;;;;;;;6312546;28;20298;-76
2022/01/08 16:22:25;;;;;;;15.77;7.60;;;;;;;;;;6312362;28;20197;-75
2022/01/08 16:25:29;;;;;;;13.57;7.83;;;;;;;;;;6312419;28;20429;-76
2022/01/08 16:28:33;;;;;;;13.50;7.57;;;;;;;;;;6314407;28;20242;-76
2022/01/08 16:31:38;;;;;;;15.37;7.17;;;;;;;;;;6315130;28;20317;-76
2022/01/08 16:34:46;;;;;;;14.33;7.07;;;;;;;;;;6278819;28;20247;-76
2022/01/08 16:37:52;;;;;;;13.00;6.97;;;;;;;;;;6311571;28;20231;-76
2022/01/08 16:40:56;;;;;;;14.23;7.33;;;;;;;;;;6309986;28;20234;-76
2022/01/08 16:44:00;;;;;;;11.23;6.30;;;;;;;;;;6310558;28;20234;-75
2022/01/08 16:47:06;;;;;;;13.97;7.03;;;;;;;;;;6311732;28;20404;-75
2022/01/08 16:50:15;;;;;;;14.70;7.17;;;;;;;;;;6295719;28;20243;-76
2022/01/08 16:53:21;;;;;;;13.47;7.13;;;;;;;;;;6311831;28;20579;-76
2022/01/08 16:56:26;;;;;;;15.07;7.47;;;;;;;;;;6311881;28;20262;-76
2022/01/08 16:59:30;;;;;;;9.40;7.30;;;;;;;;;;6313695;28;20514;-76
2022/01/08 17:02:35;;;;;;;14.00;6.87;;;;;;;;;;6312981;28;20513;-76
2022/01/08 17:05:41;;;;;;;11.70;6.10;;;;;;;;;;6312775;28;20214;-75
2022/01/08 17:08:47;;;;;;;11.53;6.77;;;;;;;;;;6312306;28;20227;-75
2022/01/08 17:11:51;;;;;;;11.10;7.07;;;;;;;;;;6311312;28;20187;-76
2022/01/08 17:14:56;;;;;;;9.13;6.17;;;;;;;;;;6311371;28;20429;-76
2022/01/08 17:18:00;;;;;;;13.17;6.83;;;;;;;;;;6311033;28;20465;-75
2022/01/08 17:21:07;;;;;;;11.37;7.27;;;;;;;;;;6313065;28;20245;-76
2022/01/08 17:24:15;;;;;;;10.87;6.57;;;;;;;;;;6313258;28;20237;-75
2022/01/08 17:27:19;;;;;;;8.70;5.97;;;;;;;;;;6313774;28;20240;-75
2022/01/08 17:30:23;;;;;;;11.60;6.50;;;;;;;;;;6314131;28;20217;-75
2022/01/08 17:33:28;;;;;;;15.03;6.13;;;;;;;;;;6307926;28;20474;-76
2022/01/08 17:36:33;;;;;;;10.70;6.47;;;;;;;;;;6317435;28;20216;-76
2022/01/08 17:39:39;;;;;;;21.80;6.93;;;;;;;;;;6318877;28;20234;-77
2022/01/08 17:42:43;;;;;;;21.30;7.43;;;;;;;;;;6316543;28;20514;-76
2022/01/08 17:45:48;;;;;;;14.67;7.03;;;;;;;;;;6317861;28;20222;-76
2022/01/08 17:48:53;;;;;;;12.73;6.80;;;;;;;;;;6317331;28;20231;-76
2022/01/08 17:51:57;;;;;;;11.77;6.43;;;;;;;;;;6320402;28;20195;-76
2022/01/08 17:58:37;;;;;;;15.17;6.77;;;;;;;;;;6316393;28;20230;-76
2022/01/08 18:01:41;;;;;;;14.27;6.30;;;;;;;;;;6314453;28;20494;-76
2022/01/08 18:04:50;;;;;;;10.40;6.63;;;;;;;;;;6314596;28;20563;-75
2022/01/08 18:07:54;;;;;;;10.10;6.20;;;;;;;;;;6315041;28;20304;-76
2022/01/08 18:11:00;;;;;;;12.23;6.67;;;;;;;;;;6315541;28;20185;-75
2022/01/08 18:14:09;;;;;;;10.00;6.90;;;;;;;;;;6314316;28;20248;-76
2022/01/08 18:17:13;;;;;;;8.60;6.67;;;;;;;;;;6315508;28;20191;-76
2022/01/08 18:20:20;;;;;;;18.60;7.27;;;;;;;;;;6314151;28;20240;-75
2022/01/08 18:23:24;;;;;;;14.00;7.47;;;;;;;;;;6313788;28;20533;-76
2022/01/08 18:26:30;;;;;;;17.13;7.10;;;;;;;;;;6313988;28;20523;-76
2022/01/08 18:29:34;;;;;;;13.40;6.90;;;;;;;;;;6314553;28;20234;-75
2022/01/08 18:32:39;;;;;;;17.13;8.03;;;;;;;;;;6313917;28;20242;-76
2022/01/08 18:35:43;;;;;;;16.27;8.33;;;;;;;;;;6314525;28;20192;-76
2022/01/08 18:38:48;;;;;;;16.20;8.30;;;;;;;;;;6314292;28;20230;-76
2022/01/08 18:41:54;;;;;;;19.90;7.80;;;;;;;;;;6313590;28;20448;-76
2022/01/08 18:44:58;;;;;;;14.70;8.20;;;;;;;;;;6313628;28;20288;-75
2022/01/08 18:48:03;;;;;;;12.93;8.30;;;;;;;;;;6313715;28;20238;-75
2022/01/08 18:51:08;;;;;;;19.83;8.43;;;;;;;;;;6313309;28;20446;-75